createdAt,value
2023-02-14T00:00:01.448Z,101798.38
2023-02-14T00:02:30.601Z,101795.41
2023-02-14T00:04:58.385Z,101789.41
2023-02-14T00:07:26.043Z,101791.91
2023-02-14T00:09:53.657Z,101792.47
2023-02-14T00:12:21.279Z,101785.19
2023-02-14T00:15:06.603Z,101786.81
2023-02-14T00:17:35.599Z,101797.66
2023-02-14T00:20:03.178Z,101797.13
2023-02-14T00:22:30.837Z,101794.41
2023-02-14T00:24:58.727Z,101796.56
2023-02-14T00:27:26.352Z,101800.13
2023-02-14T00:29:54.742Z,101794.41
2023-02-14T00:32:22.550Z,101790.63
2023-02-14T00:34:51.514Z,101789.25
2023-02-14T00:37:19.150Z,101796.88
2023-02-14T00:39:46.786Z,101800.41
2023-02-14T00:42:15.285Z,101796.03
2023-02-14T00:44:43.105Z,101794.94
2023-02-14T00:47:12.007Z,101786.81
2023-02-14T00:49:39.588Z,101779.22
2023-02-14T00:52:08.574Z,101786.03
2023-02-14T00:54:36.209Z,101780.59
2023-02-14T00:57:03.967Z,101775.97
2023-02-14T00:59:31.647Z,101779.78
2023-02-14T01:01:59.304Z,101785.72
2023-02-14T01:04:27.240Z,101776.50
2023-02-14T01:06:54.982Z,101770.00
2023-02-14T01:09:23.941Z,101770.00
2023-02-14T01:11:51.593Z,101770.81
2023-02-14T01:14:19.479Z,101771.59
2023-02-14T01:16:47.227Z,101756.94
2023-02-14T01:19:15.007Z,101780.00
2023-02-14T01:21:44.831Z,101768.91
2023-02-14T01:24:13.568Z,101781.34
2023-02-14T01:26:45.194Z,101782.41
2023-02-14T01:29:12.843Z,101781.63
2023-02-14T01:31:40.698Z,101785.13
2023-02-14T01:34:08.471Z,101772.13
2023-02-14T01:36:38.401Z,101764.53
2023-02-14T01:39:08.024Z,101769.41
2023-02-14T01:41:38.585Z,101775.06
2023-02-14T01:44:09.442Z,101768.03
2023-02-14T01:46:38.625Z,101768.25
2023-02-14T01:49:12.766Z,101777.50
2023-02-14T01:51:45.554Z,101770.16
2023-02-14T01:54:14.433Z,101774.75
2023-02-14T01:56:45.048Z,101772.88
2023-02-14T01:59:19.526Z,101776.94
2023-02-14T02:01:50.703Z,101778.03
2023-02-14T02:04:22.796Z,101788.56
2023-02-14T02:06:54.487Z,101782.59
2023-02-14T02:09:27.466Z,101786.41
2023-02-14T02:11:55.838Z,101792.09
2023-02-14T02:14:25.176Z,101791.25
2023-02-14T02:17:12.606Z,101796.34
2023-02-14T02:20:17.975Z,101801.50
2023-02-14T02:23:21.825Z,101797.19
2023-02-14T02:26:11.288Z,101788.81
2023-02-14T02:28:57.979Z,101786.91
2023-02-14T02:31:47.561Z,101776.84
2023-02-14T02:34:44.772Z,101786.56
2023-02-14T02:37:26.135Z,101784.97
2023-02-14T02:40:07.424Z,101773.28
2023-02-14T02:42:44.015Z,101770.28
2023-02-14T02:45:18.082Z,101773.50
2023-02-14T02:47:54.070Z,101778.38
2023-02-14T02:50:43.973Z,101775.13
2023-02-14T02:53:20.871Z,101777.22
2023-02-14T02:56:12.413Z,101777.47
2023-02-14T02:58:46.267Z,101773.94
2023-02-14T03:01:19.109Z,101773.34
2023-02-14T03:04:03.766Z,101768.97
2023-02-14T03:06:31.618Z,101764.41
2023-02-14T03:09:11.486Z,101753.22
2023-02-14T03:11:44.974Z,101760.88
2023-02-14T03:14:21.458Z,101766.28
2023-02-14T03:17:04.723Z,101768.25
2023-02-14T03:20:10.167Z,101773.09
2023-02-14T03:22:49.842Z,101768.72
2023-02-14T03:25:29.329Z,101785.22
2023-02-14T03:28:05.446Z,101783.84
2023-02-14T03:30:42.084Z,101777.31
2023-02-14T03:33:18.124Z,101782.97
2023-02-14T03:35:54.390Z,101784.06
2023-02-14T03:38:26.434Z,101788.13
2023-02-14T03:41:00.488Z,101786.78
2023-02-14T03:43:35.236Z,101795.69
2023-02-14T03:46:08.267Z,101753.69
2023-02-14T03:48:37.650Z,101781.59
2023-02-14T03:51:08.321Z,101783.19
2023-02-14T03:53:39.425Z,101783.19
2023-02-14T03:56:14.855Z,101779.69
2023-02-14T03:58:45.730Z,101779.38
2023-02-14T04:01:20.751Z,101785.28
2023-02-14T04:03:49.758Z,101772.84
2023-02-14T04:06:18.430Z,101778.50
2023-02-14T04:08:46.472Z,101780.31
2023-02-14T04:11:15.985Z,101785.94
2023-02-14T04:13:43.698Z,101786.19
2023-02-14T04:16:11.378Z,101783.75
2023-02-14T04:18:58.906Z,101786.75
2023-02-14T04:21:26.561Z,101783.25
2023-02-14T04:23:54.246Z,101784.91
2023-02-14T04:26:23.372Z,101788.13
2023-02-14T04:28:51.018Z,101785.97
2023-02-14T04:31:18.726Z,101796.22
2023-02-14T04:33:48.026Z,101794.63
2023-02-14T04:36:16.025Z,101794.63
2023-02-14T04:38:44.151Z,101786.44
2023-02-14T04:41:11.967Z,101794.63
2023-02-14T04:43:41.296Z,101791.09
2023-02-14T04:46:08.967Z,101784.03
2023-02-14T04:48:36.930Z,101794.56
2023-02-14T04:51:05.010Z,101788.41
2023-02-14T04:53:32.651Z,101787.53
2023-02-14T04:56:00.266Z,101795.84
2023-02-14T04:58:27.921Z,101789.13
2023-02-14T05:00:57.013Z,101786.41
2023-02-14T05:03:25.020Z,101795.00
2023-02-14T05:05:52.693Z,101783.38
2023-02-14T05:08:20.358Z,101790.22
2023-02-14T05:10:48.007Z,101782.94
2023-02-14T05:13:15.721Z,101792.47
2023-02-14T05:15:45.098Z,101790.34
2023-02-14T05:18:14.115Z,101783.91
2023-02-14T05:20:41.764Z,101792.66
2023-02-14T05:23:13.506Z,101780.78
2023-02-14T05:25:41.268Z,101780.84
2023-02-14T05:28:09.254Z,101780.28
2023-02-14T05:30:38.357Z,101785.38
2023-02-14T05:33:06.145Z,101781.84
2023-02-14T05:35:35.215Z,101768.81
2023-02-14T05:38:02.850Z,101783.44
2023-02-14T05:40:30.531Z,101776.97
2023-02-14T05:42:58.939Z,101775.66
2023-02-14T05:45:27.312Z,101779.16
2023-02-14T05:47:54.950Z,101778.97
2023-02-14T05:50:22.753Z,101783.03
2023-02-14T05:52:56.588Z,101782.63
2023-02-14T05:55:24.644Z,101788.34
2023-02-14T05:57:52.265Z,101794.56
2023-02-14T06:00:21.321Z,101795.13
2023-02-14T06:02:48.986Z,101790.84
2023-02-14T06:05:18.119Z,101789.47
2023-02-14T06:07:50.214Z,101791.38
2023-02-14T06:10:21.315Z,101751.44
2023-02-14T06:12:50.235Z,101793.78
2023-02-14T06:15:18.440Z,101794.50
2023-02-14T06:17:47.123Z,101789.63
2023-02-14T06:20:15.106Z,101795.03
2023-02-14T06:22:42.925Z,101790.22
2023-02-14T06:25:13.464Z,101784.78
2023-02-14T06:27:42.790Z,101789.41
2023-02-14T06:30:12.562Z,101772.91
2023-02-14T06:32:40.413Z,101796.25
2023-02-14T06:35:09.067Z,101794.94
2023-02-14T06:37:38.630Z,101794.94
2023-02-14T06:40:07.773Z,101799.00
2023-02-14T06:42:35.521Z,101788.97
2023-02-14T06:45:05.306Z,101805.03
2023-02-14T06:47:34.991Z,101810.44
2023-02-14T06:50:05.109Z,101806.69
2023-02-14T06:52:33.162Z,101812.91
2023-02-14T06:55:01.054Z,101811.22
2023-02-14T06:57:29.174Z,101818.06
2023-02-14T06:59:57.052Z,101821.56
2023-02-14T07:02:26.407Z,101832.44
2023-02-14T07:04:54.197Z,101832.66
2023-02-14T07:07:22.020Z,101831.34
2023-02-14T07:09:49.960Z,101835.47
2023-02-14T07:12:17.768Z,101839.28
2023-02-14T07:14:45.548Z,101840.41
2023-02-14T07:17:13.316Z,101836.88
2023-02-14T07:19:42.447Z,101839.31
2023-02-14T07:22:10.333Z,101841.50
2023-02-14T07:24:38.237Z,101839.63
2023-02-14T07:27:06.048Z,101841.53
2023-02-14T07:29:34.159Z,101847.19
2023-02-14T07:32:01.997Z,101838.53
2023-02-14T07:34:29.924Z,101829.88
2023-02-14T07:36:59.105Z,101832.63
2023-02-14T07:39:26.885Z,101838.88
2023-02-14T07:41:54.652Z,101842.13
2023-02-14T07:44:22.402Z,101834.53
2023-02-14T07:46:50.187Z,101837.53
2023-02-14T07:49:17.948Z,101826.13
2023-02-14T07:51:45.683Z,101827.50
2023-02-14T07:54:14.861Z,101828.03
2023-02-14T07:56:42.709Z,101822.63
2023-02-14T07:59:10.581Z,101823.97
2023-02-14T08:01:38.478Z,101820.44
2023-02-14T08:04:06.536Z,101822.63
2023-02-14T08:06:34.545Z,101823.72
2023-02-14T08:09:02.525Z,101824.25
2023-02-14T08:11:54.292Z,101818.84
2023-02-14T08:14:22.387Z,101825.31
2023-02-14T08:16:50.158Z,101819.59
2023-02-14T08:19:17.962Z,101824.78
2023-02-14T08:21:45.738Z,101830.97
2023-02-14T08:24:13.526Z,101823.63
2023-02-14T08:26:42.649Z,101827.38
2023-02-14T08:29:10.550Z,101829.44
2023-02-14T08:31:38.426Z,101825.19
2023-02-14T08:34:06.940Z,101829.22
2023-02-14T08:36:35.268Z,101822.44
2023-02-14T08:39:04.846Z,101833.31
2023-02-14T08:41:32.736Z,101826.25
2023-02-14T08:44:02.182Z,101791.47
2023-02-14T08:46:30.373Z,101837.63
2023-02-14T08:48:58.215Z,101827.66
2023-02-14T08:51:26.855Z,101828.16
2023-02-14T08:53:55.923Z,101821.44
2023-02-14T08:56:24.824Z,101818.22
2023-02-14T08:58:54.460Z,101829.66
2023-02-14T09:01:23.806Z,101826.03
2023-02-14T09:03:51.669Z,101820.59
2023-02-14T09:06:19.601Z,101827.06
2023-02-14T09:08:47.771Z,101829.69
2023-02-14T09:11:18.663Z,101829.38
2023-02-14T09:13:48.208Z,101823.44
2023-02-14T09:16:18.957Z,101819.16
2023-02-14T09:18:49.539Z,101823.19
2023-02-14T09:21:18.735Z,101813.59
2023-02-14T09:23:46.816Z,101825.53
2023-02-14T09:26:16.200Z,101820.06
2023-02-14T09:28:44.896Z,101821.88
2023-02-14T09:31:15.131Z,101805.34
2023-02-14T09:33:44.446Z,101818.38
2023-02-14T09:36:31.378Z,101813.13
2023-02-14T09:38:59.269Z,101804.31
2023-02-14T09:41:54.368Z,101805.16
2023-02-14T09:44:30.651Z,101787.19
2023-02-14T09:47:06.654Z,101808.19
2023-02-14T09:49:39.681Z,101795.66
2023-02-14T09:52:16.541Z,101795.03
2023-02-14T09:54:49.252Z,101810.06
2023-02-14T09:57:25.796Z,101809.63
2023-02-14T09:59:58.387Z,101803.22
2023-02-14T10:02:39.012Z,101808.22
2023-02-14T10:05:14.009Z,101807.88
2023-02-14T10:07:56.850Z,101790.28
2023-02-14T10:10:28.266Z,101808.72
2023-02-14T10:13:01.674Z,101799.66
2023-02-14T10:15:33.538Z,101801.38
2023-02-14T10:18:06.184Z,101807.03
2023-02-14T10:20:39.323Z,101810.59
2023-02-14T10:23:30.241Z,101803.34
2023-02-14T10:26:02.087Z,101798.56
2023-02-14T10:28:35.596Z,101742.56
2023-02-14T10:31:18.770Z,101799.63
2023-02-14T10:34:16.801Z,101799.69
2023-02-14T10:37:02.998Z,101785.06
2023-02-14T10:39:53.845Z,101764.69
2023-02-14T10:42:32.367Z,101797.84
2023-02-14T10:45:12.957Z,101796.78
2023-02-14T10:47:50.056Z,101787.63
2023-02-14T10:50:22.240Z,101773.50
2023-02-14T10:52:59.351Z,101778.31
2023-02-14T10:55:39.688Z,101777.28
2023-02-14T10:58:11.615Z,101775.41
2023-02-14T11:00:41.734Z,101765.16
2023-02-14T11:03:10.905Z,101764.38
2023-02-14T11:05:43.724Z,101759.75
2023-02-14T11:08:26.383Z,101762.84
2023-02-14T11:11:00.639Z,101765.88
2023-02-14T11:13:32.028Z,101763.81
2023-02-14T11:16:01.954Z,101758.06
2023-02-14T11:18:33.049Z,101759.69
2023-02-14T11:21:03.258Z,101754.47
2023-02-14T11:23:34.586Z,101756.34
2023-02-14T11:26:26.241Z,101742.81
2023-02-14T11:28:58.272Z,101747.53
2023-02-14T11:31:31.254Z,101743.31
2023-02-14T11:33:59.901Z,101743.16
2023-02-14T11:36:28.605Z,101741.34
2023-02-14T11:38:59.290Z,101719.25
2023-02-14T11:41:28.369Z,101733.13
2023-02-14T11:44:15.347Z,101723.63
2023-02-14T11:46:52.782Z,101704.34
2023-02-14T11:49:28.419Z,101723.75
2023-02-14T11:51:57.320Z,101727.22
2023-02-14T11:54:30.734Z,101716.41
2023-02-14T11:57:07.452Z,101710.97
2023-02-14T11:59:39.898Z,101708.09
2023-02-14T12:02:21.385Z,101705.09
2023-02-14T12:04:52.885Z,101697.31
2023-02-14T12:07:25.782Z,101700.19
2023-02-14T12:10:17.806Z,101696.72
2023-02-14T12:12:56.408Z,101698.03
2023-02-14T12:15:43.576Z,101675.16
2023-02-14T12:18:25.689Z,101693.41
2023-02-14T12:21:00.706Z,101696.19
2023-02-14T12:23:35.962Z,101688.13
2023-02-14T12:26:10.395Z,101678.44
2023-02-14T12:28:52.196Z,101672.03
2023-02-14T12:31:20.561Z,101669.94
2023-02-14T12:33:50.453Z,101671.75
2023-02-14T12:36:34.315Z,101657.53
2023-02-14T12:39:10.164Z,101665.53
2023-02-14T12:41:49.069Z,101663.06
2023-02-14T12:44:28.525Z,101664.16
2023-02-14T12:47:17.772Z,101660.84
2023-02-14T12:50:14.266Z,101659.69
2023-02-14T12:52:55.438Z,101657.88
2023-02-14T12:55:48.886Z,101657.88
2023-02-14T12:58:29.076Z,101659.03
2023-02-14T13:01:08.644Z,101656.41
2023-02-14T13:04:04.041Z,101656.19
2023-02-14T13:06:34.054Z,101647.06
2023-02-14T13:09:17.630Z,101648.50
2023-02-14T13:11:59.431Z,101644.91
2023-02-14T13:14:41.633Z,101637.03
2023-02-14T13:17:20.227Z,101635.13
2023-02-14T13:19:58.972Z,101637.41
2023-02-14T13:22:30.902Z,101630.13
2023-02-14T13:25:01.644Z,101636.59
2023-02-14T13:27:33.978Z,101632.28
2023-02-14T13:30:06.251Z,101624.38
2023-02-14T13:32:39.866Z,101626.16
2023-02-14T13:35:09.151Z,101614.75
2023-02-14T13:37:37.878Z,101612.84
2023-02-14T13:40:10.340Z,101626.47
2023-02-14T13:42:56.924Z,101612.63
2023-02-14T13:45:53.951Z,101621.03
2023-02-14T13:48:25.508Z,101613.56
2023-02-14T13:50:56.854Z,101616.13
2023-02-14T13:53:36.829Z,101607.38
2023-02-14T13:56:07.388Z,101606.41
2023-02-14T13:58:36.342Z,101576.28
2023-02-14T14:01:31.539Z,101612.53
2023-02-14T14:04:03.388Z,101608.59
2023-02-14T14:06:31.490Z,101611.59
2023-02-14T14:08:59.303Z,101607.69
2023-02-14T14:11:57.725Z,101609.75
2023-02-14T14:14:39.552Z,101598.78
2023-02-14T14:17:25.745Z,101603.03
2023-02-14T14:19:54.911Z,101573.84
2023-02-14T14:22:22.730Z,101599.38
2023-02-14T14:24:56.045Z,101599.28
2023-02-14T14:27:26.533Z,101596.19
2023-02-14T14:29:56.273Z,101591.63
2023-02-14T14:32:29.870Z,101563.38
2023-02-14T14:35:00.607Z,101585.25
2023-02-14T14:37:30.626Z,101579.66
2023-02-14T14:40:00.084Z,101580.53
2023-02-14T14:42:30.926Z,101586.41
2023-02-14T14:45:02.758Z,101568.53
2023-02-14T14:47:38.361Z,101572.44
2023-02-14T14:50:10.545Z,101567.34
2023-02-14T14:52:42.679Z,101543.78
2023-02-14T14:55:19.836Z,101569.72
2023-02-14T14:57:51.471Z,101570.06
2023-02-14T15:00:22.656Z,101561.69
2023-02-14T15:02:59.826Z,101568.75
2023-02-14T15:05:32.016Z,101566.56
2023-02-14T15:07:59.995Z,101560.28
2023-02-14T15:10:29.930Z,101555.34
2023-02-14T15:13:17.965Z,101559.03
2023-02-14T15:15:50.776Z,101557.50
2023-02-14T15:18:20.332Z,101552.31
2023-02-14T15:20:52.081Z,101484.47
2023-02-14T15:23:23.155Z,101536.78
2023-02-14T15:25:52.714Z,101539.97
2023-02-14T15:28:32.054Z,101541.69
2023-02-14T15:31:02.941Z,101546.50
2023-02-14T15:33:32.242Z,101543.91
2023-02-14T15:36:04.113Z,101550.97
2023-02-14T15:38:33.796Z,101534.22
2023-02-14T15:41:02.537Z,101551.03
2023-02-14T15:43:32.671Z,101540.09
2023-02-14T15:46:17.141Z,101540.47
2023-02-14T15:48:46.431Z,101542.22
2023-02-14T15:51:21.642Z,101539.63
2023-02-14T15:53:54.586Z,101542.34
2023-02-14T15:56:26.248Z,101534.81
2023-02-14T15:59:00.406Z,101535.44
2023-02-14T16:01:28.650Z,101536.03
2023-02-14T16:03:59.753Z,101533.22
2023-02-14T16:06:34.828Z,101532.91
2023-02-14T16:09:04.392Z,101536.31
2023-02-14T16:11:35.406Z,101534.19
2023-02-14T16:14:27.753Z,101536.13
2023-02-14T16:17:03.091Z,101529.91
2023-02-14T16:19:35.654Z,101533.47
2023-02-14T16:22:05.290Z,101532.63
2023-02-14T16:24:33.112Z,101538.91
2023-02-14T16:27:06.716Z,101532.13
2023-02-14T16:29:35.818Z,101533.78
2023-02-14T16:32:16.310Z,101524.69
2023-02-14T16:34:45.920Z,101527.66
2023-02-14T16:37:22.155Z,101538.13
2023-02-14T16:39:50.634Z,101528.03
2023-02-14T16:42:19.381Z,101540.19
2023-02-14T16:44:47.934Z,101522.66
2023-02-14T16:47:17.893Z,101529.97
2023-02-14T16:49:45.882Z,101537.44
2023-02-14T16:52:15.542Z,101534.28
2023-02-14T16:54:44.642Z,101538.03
2023-02-14T16:57:18.789Z,101533.63
2023-02-14T16:59:46.803Z,101547.22
2023-02-14T17:02:15.965Z,101543.75
2023-02-14T17:04:43.613Z,101541.09
2023-02-14T17:07:13.097Z,101545.84
2023-02-14T17:09:44.634Z,101528.22
2023-02-14T17:12:17.360Z,101546.47
2023-02-14T17:14:49.641Z,101553.31
2023-02-14T17:17:17.800Z,101548.03
2023-02-14T17:19:45.666Z,101560.94
2023-02-14T17:22:15.112Z,101563.34
2023-02-14T17:24:42.878Z,101556.47
2023-02-14T17:27:10.880Z,101562.19
2023-02-14T17:29:39.856Z,101569.78
2023-02-14T17:32:07.630Z,101566.81
2023-02-14T17:34:44.331Z,101571.38
2023-02-14T17:37:12.040Z,101538.81
2023-02-14T17:39:39.987Z,101562.56
2023-02-14T17:42:07.654Z,101559.78
2023-02-14T17:44:35.873Z,101563.13
2023-02-14T17:47:05.539Z,101560.66
2023-02-14T17:49:33.244Z,101558.22
2023-02-14T17:52:01.036Z,101556.03
2023-02-14T17:54:28.706Z,101558.63
2023-02-14T17:56:56.360Z,101553.19
2023-02-14T17:59:24.225Z,101553.94
2023-02-14T18:01:51.882Z,101551.28
2023-02-14T18:04:20.933Z,101549.97
2023-02-14T18:06:48.590Z,101555.44
2023-02-14T18:09:16.318Z,101553.03
2023-02-14T18:11:44.447Z,101552.03
2023-02-14T18:14:12.657Z,101549.66
2023-02-14T18:16:41.241Z,101550.22
2023-02-14T18:19:09.993Z,101540.25
2023-02-14T18:21:40.017Z,101534.31
2023-02-14T18:24:08.523Z,101534.63
2023-02-14T18:26:37.880Z,101534.06
2023-02-14T18:29:06.645Z,101533.00
2023-02-14T18:31:35.169Z,101511.34
2023-02-14T18:34:03.110Z,101528.19
2023-02-14T18:36:32.101Z,101536.81
2023-02-14T18:39:01.278Z,101518.19
2023-02-14T18:41:29.627Z,101510.84
2023-02-14T18:43:57.311Z,101515.16
2023-02-14T18:46:27.093Z,101515.75
2023-02-14T18:48:56.715Z,101508.13
2023-02-14T18:51:26.146Z,101506.28
2023-02-14T18:53:55.079Z,101495.75
2023-02-14T18:56:27.091Z,101507.13
2023-02-14T18:58:57.363Z,101504.97
2023-02-14T19:01:28.704Z,101498.75
2023-02-14T19:03:57.428Z,101495.00
2023-02-14T19:06:25.143Z,101489.56
2023-02-14T19:08:52.838Z,101494.13
2023-02-14T19:11:23.501Z,101490.34
2023-02-14T19:13:55.569Z,101493.56
2023-02-14T19:16:26.047Z,101494.69
2023-02-14T19:18:54.026Z,101487.84
2023-02-14T19:21:23.475Z,101491.34
2023-02-14T19:23:53.232Z,101494.00
2023-02-14T19:26:23.472Z,101495.66
2023-02-14T19:28:56.867Z,101498.38
2023-02-14T19:31:25.185Z,101496.41
2023-02-14T19:33:53.284Z,101491.03
2023-02-14T19:36:23.047Z,101485.88
2023-02-14T19:38:53.182Z,101484.19
2023-02-14T19:41:23.055Z,101479.31
2023-02-14T19:43:52.799Z,101472.53
2023-02-14T19:46:22.240Z,101470.69
2023-02-14T19:48:49.878Z,101473.66
2023-02-14T19:51:19.362Z,101476.69
2023-02-14T19:53:47.026Z,101473.41
2023-02-14T19:56:19.545Z,101475.56
2023-02-14T19:58:47.257Z,101469.38
2023-02-14T20:01:24.342Z,101470.69
2023-02-14T20:03:53.032Z,101470.97
2023-02-14T20:06:22.108Z,101466.94
2023-02-14T20:08:50.065Z,101458.03
2023-02-14T20:11:28.183Z,101466.13
2023-02-14T20:13:55.943Z,101452.63
2023-02-14T20:16:26.154Z,101462.06
2023-02-14T20:18:54.337Z,101455.56
2023-02-14T20:21:25.380Z,101457.72
2023-02-14T20:23:53.275Z,101430.44
2023-02-14T20:26:21.959Z,101445.56
2023-02-14T20:28:50.174Z,101447.75
2023-02-14T20:31:19.999Z,101441.97
2023-02-14T20:33:50.388Z,101443.09
2023-02-14T20:36:18.672Z,101440.91
2023-02-14T20:38:46.626Z,101437.09
2023-02-14T20:41:16.373Z,101426.25
2023-02-14T20:43:44.046Z,101433.38
2023-02-14T20:46:11.796Z,101433.38
2023-02-14T20:48:39.464Z,101432.81
2023-02-14T20:51:12.252Z,101421.47
2023-02-14T20:53:40.539Z,101417.28
2023-02-14T20:56:08.884Z,101427.81
2023-02-14T20:58:38.637Z,101429.75
2023-02-14T21:01:08.084Z,101424.25
2023-02-14T21:03:37.220Z,101378.31
2023-02-14T21:06:05.951Z,101421.56
2023-02-14T21:08:36.780Z,101424.00
2023-02-14T21:11:04.996Z,101421.56
2023-02-14T21:13:33.189Z,101416.41
2023-02-14T21:16:03.960Z,101414.75
2023-02-14T21:18:33.300Z,101415.56
2023-02-14T21:21:05.492Z,101389.66
2023-02-14T21:23:33.240Z,101411.22
2023-02-14T21:26:02.417Z,101406.34
2023-02-14T21:28:30.477Z,101404.69
2023-02-14T21:31:09.167Z,101402.50
2023-02-14T21:33:37.485Z,101398.09
2023-02-14T21:36:08.633Z,101406.78
2023-02-14T21:38:36.458Z,101401.91
2023-02-14T21:41:06.967Z,101397.63
2023-02-14T21:43:36.166Z,101397.84
2023-02-14T21:46:05.017Z,101400.81
2023-02-14T21:48:50.889Z,101395.34
2023-02-14T21:51:18.567Z,101400.28
2023-02-14T21:53:47.056Z,101397.03
2023-02-14T21:56:19.664Z,101399.00
2023-02-14T21:58:48.050Z,101376.56
2023-02-14T22:01:17.464Z,101391.38
2023-02-14T22:03:45.582Z,101393.84
2023-02-14T22:06:14.072Z,101390.94
2023-02-14T22:08:42.753Z,101388.25
2023-02-14T22:11:12.578Z,101396.06
2023-02-14T22:13:42.505Z,101387.38
2023-02-14T22:16:12.774Z,101384.97
2023-02-14T22:18:41.206Z,101383.00
2023-02-14T22:21:10.807Z,101375.69
2023-02-14T22:23:39.117Z,101377.09
2023-02-14T22:26:14.569Z,101378.16
2023-02-14T22:28:44.846Z,101367.00
2023-02-14T22:31:13.182Z,101378.91
2023-02-14T22:33:41.227Z,101381.25
2023-02-14T22:36:09.675Z,101383.41
2023-02-14T22:38:38.051Z,101383.97
2023-02-14T22:41:07.287Z,101380.22
2023-02-14T22:43:35.632Z,101372.91
2023-02-14T22:46:06.857Z,101379.44
2023-02-14T22:48:36.007Z,101373.53
2023-02-14T22:51:12.012Z,101377.63
2023-02-14T22:53:40.119Z,101374.16
2023-02-14T22:56:16.576Z,101372.03
2023-02-14T22:58:44.874Z,101373.41
2023-02-14T23:01:19.216Z,101372.81
2023-02-14T23:03:47.638Z,101365.22
2023-02-14T23:06:16.280Z,101365.50
2023-02-14T23:08:46.225Z,101362.22
2023-02-14T23:11:16.666Z,101364.88
2023-02-14T23:14:01.878Z,101364.09
2023-02-14T23:16:48.884Z,101371.09
2023-02-14T23:19:35.592Z,101360.84
2023-02-14T23:22:05.901Z,101371.16
2023-02-14T23:24:33.749Z,101363.50
2023-02-14T23:27:01.714Z,101361.03
2023-02-14T23:29:29.621Z,101355.06
2023-02-14T23:31:58.942Z,101357.28
2023-02-14T23:34:27.574Z,101353.72
2023-02-14T23:36:56.916Z,101353.19
2023-02-14T23:39:24.739Z,101352.09
2023-02-14T23:41:52.592Z,101364.47
2023-02-14T23:44:22.361Z,101376.09
2023-02-14T23:46:51.521Z,101372.13
2023-02-14T23:49:21.343Z,101363.19
2023-02-14T23:51:50.837Z,101369.72
2023-02-14T23:54:19.908Z,101362.97
2023-02-14T23:56:47.968Z,101365.16
2023-02-14T23:59:16.651Z,101355.09
